Farmers, Nebraska
Current Conditions -  °F | °C
As of 2:15 PM on Thursday 29 Jan 2015 (Local Time) from KHDE Reporting Station
Clear Clear  
Wind Chill: 39°   Ceiling: Unl
Heat Index: 44°   Visibility: 10mi
Dew Point: 23°   Wind: 10mph
Humidity: 43%   Direction: 320°NW
Pressure: 30.44"   Gusts: 17mph
Location:  40.1338°N, 99.0101°W
Report Text: KHDE 292015Z AUTO 32009G15KT 10SM CLR 07/M05 A3044 RMK AO2 T00691048
Loading
Personal Weather Stations






























Interactive Weather Map New forecast layout! Learn more

10-Day Weather Forecast

Advertisements
Track Severe Weather on mobile